sensor_id;sensor_type;location;lat;lon;timestamp;P1;durP1;ratioP1;P2;durP2;ratioP2
22186;SDS011;11259;52.146;12.844;2023-04-08T00:01:14;2.92;;;2.58;;
22186;SDS011;11259;52.146;12.844;2023-04-08T00:03:41;8.15;;;2.30;;
22186;SDS011;11259;52.146;12.844;2023-04-08T00:06:06;2.60;;;1.60;;
22186;SDS011;11259;52.146;12.844;2023-04-08T00:08:32;1.85;;;1.67;;
22186;SDS011;11259;52.146;12.844;2023-04-08T00:10:57;2.80;;;1.45;;
22186;SDS011;11259;52.146;12.844;2023-04-08T00:13:22;3.22;;;2.25;;
22186;SDS011;11259;52.146;12.844;2023-04-08T00:15:48;3.25;;;1.98;;
22186;SDS011;11259;52.146;12.844;2023-04-08T00:18:13;2.20;;;1.60;;
22186;SDS011;11259;52.146;12.844;2023-04-08T00:20:41;2.45;;;2.03;;
22186;SDS011;11259;52.146;12.844;2023-04-08T00:23:06;1.83;;;1.73;;
22186;SDS011;11259;52.146;12.844;2023-04-08T00:25:32;2.05;;;1.77;;
22186;SDS011;11259;52.146;12.844;2023-04-08T00:27:57;2.75;;;1.75;;
22186;SDS011;11259;52.146;12.844;2023-04-08T00:30:22;3.10;;;1.75;;
22186;SDS011;11259;52.146;12.844;2023-04-08T00:32:47;2.08;;;1.85;;
22186;SDS011;11259;52.146;12.844;2023-04-08T00:35:13;4.18;;;2.15;;
22186;SDS011;11259;52.146;12.844;2023-04-08T00:37:40;3.28;;;2.10;;
22186;SDS011;11259;52.146;12.844;2023-04-08T00:40:05;2.42;;;2.15;;
22186;SDS011;11259;52.146;12.844;2023-04-08T00:42:31;1.90;;;1.67;;
22186;SDS011;11259;52.146;12.844;2023-04-08T00:44:57;3.47;;;2.42;;
22186;SDS011;11259;52.146;12.844;2023-04-08T00:47:22;1.83;;;1.33;;
22186;SDS011;11259;52.146;12.844;2023-04-08T00:49:48;1.17;;;1.08;;
22186;SDS011;11259;52.146;12.844;2023-04-08T00:52:13;2.17;;;1.90;;
22186;SDS011;11259;52.146;12.844;2023-04-08T00:54:40;2.17;;;1.98;;
22186;SDS011;11259;52.146;12.844;2023-04-08T00:57:05;3.97;;;2.58;;
22186;SDS011;11259;52.146;12.844;2023-04-08T00:59:32;2.28;;;1.73;;
22186;SDS011;11259;52.146;12.844;2023-04-08T01:01:58;1.73;;;1.63;;
22186;SDS011;11259;52.146;12.844;2023-04-08T01:04:32;2.67;;;1.95;;
22186;SDS011;11259;52.146;12.844;2023-04-08T01:07:05;3.78;;;1.80;;
22186;SDS011;11259;52.146;12.844;2023-04-08T01:09:37;1.40;;;1.30;;
22186;SDS011;11259;52.146;12.844;2023-04-08T01:12:05;1.70;;;1.30;;
22186;SDS011;11259;52.146;12.844;2023-04-08T01:14:33;2.20;;;1.42;;
22186;SDS011;11259;52.146;12.844;2023-04-08T01:16:59;3.42;;;1.67;;
22186;SDS011;11259;52.146;12.844;2023-04-08T01:19:26;1.40;;;1.30;;
22186;SDS011;11259;52.146;12.844;2023-04-08T01:21:57;2.15;;;1.48;;
22186;SDS011;11259;52.146;12.844;2023-04-08T01:24:27;2.03;;;1.27;;
22186;SDS011;11259;52.146;12.844;2023-04-08T01:26:55;2.22;;;1.90;;
22186;SDS011;11259;52.146;12.844;2023-04-08T01:29:22;1.58;;;1.48;;
22186;SDS011;11259;52.146;12.844;2023-04-08T01:31:48;1.55;;;1.33;;
22186;SDS011;11259;52.146;12.844;2023-04-08T01:34:14;2.00;;;1.52;;
22186;SDS011;11259;52.146;12.844;2023-04-08T01:36:43;2.22;;;1.38;;
22186;SDS011;11259;52.146;12.844;2023-04-08T01:39:08;2.38;;;1.63;;
22186;SDS011;11259;52.146;12.844;2023-04-08T01:41:34;2.03;;;1.42;;
22186;SDS011;11259;52.146;12.844;2023-04-08T01:44:02;1.73;;;1.42;;
22186;SDS011;11259;52.146;12.844;2023-04-08T01:46:28;2.30;;;1.20;;
22186;SDS011;11259;52.146;12.844;2023-04-08T01:48:54;2.25;;;1.80;;
22186;SDS011;11259;52.146;12.844;2023-04-08T01:51:20;1.20;;;1.10;;
22186;SDS011;11259;52.146;12.844;2023-04-08T01:53:46;2.40;;;1.23;;
22186;SDS011;11259;52.146;12.844;2023-04-08T01:56:11;1.17;;;1.08;;
22186;SDS011;11259;52.146;12.844;2023-04-08T01:58:38;2.25;;;1.63;;
22186;SDS011;11259;52.146;12.844;2023-04-08T02:01:08;1.45;;;1.27;;
22186;SDS011;11259;52.146;12.844;2023-04-08T02:03:35;1.60;;;1.50;;
22186;SDS011;11259;52.146;12.844;2023-04-08T02:06:00;1.30;;;1.20;;
22186;SDS011;11259;52.146;12.844;2023-04-08T02:08:25;1.55;;;1.45;;
22186;SDS011;11259;52.146;12.844;2023-04-08T02:10:51;2.08;;;1.70;;
22186;SDS011;11259;52.146;12.844;2023-04-08T02:13:16;3.33;;;2.00;;
22186;SDS011;11259;52.146;12.844;2023-04-08T02:15:42;1.40;;;1.23;;
22186;SDS011;11259;52.146;12.844;2023-04-08T02:18:14;3.63;;;2.05;;
22186;SDS011;11259;52.146;12.844;2023-04-08T02:20:42;4.28;;;1.95;;
22186;SDS011;11259;52.146;12.844;2023-04-08T02:23:09;3.38;;;2.17;;
22186;SDS011;11259;52.146;12.844;2023-04-08T02:25:39;3.03;;;1.88;;
22186;SDS011;11259;52.146;12.844;2023-04-08T02:28:05;3.47;;;2.13;;
22186;SDS011;11259;52.146;12.844;2023-04-08T02:30:32;3.20;;;2.20;;
22186;SDS011;11259;52.146;12.844;2023-04-08T02:32:58;2.90;;;1.70;;
22186;SDS011;11259;52.146;12.844;2023-04-08T02:35:26;2.78;;;2.35;;
22186;SDS011;11259;52.146;12.844;2023-04-08T02:37:52;4.55;;;2.30;;
22186;SDS011;11259;52.146;12.844;2023-04-08T02:40:24;4.43;;;2.97;;
22186;SDS011;11259;52.146;12.844;2023-04-08T02:42:50;5.70;;;2.38;;
22186;SDS011;11259;52.146;12.844;2023-04-08T02:45:16;6.45;;;3.38;;
22186;SDS011;11259;52.146;12.844;2023-04-08T02:47:41;7.32;;;3.30;;
22186;SDS011;11259;52.146;12.844;2023-04-08T02:50:07;4.95;;;3.22;;
22186;SDS011;11259;52.146;12.844;2023-04-08T02:52:34;4.68;;;3.22;;
22186;SDS011;11259;52.146;12.844;2023-04-08T02:55:00;4.53;;;2.83;;
22186;SDS011;11259;52.146;12.844;2023-04-08T02:57:25;4.10;;;3.30;;
22186;SDS011;11259;52.146;12.844;2023-04-08T02:59:50;8.77;;;3.55;;
22186;SDS011;11259;52.146;12.844;2023-04-08T03:02:16;6.25;;;3.10;;
22186;SDS011;11259;52.146;12.844;2023-04-08T03:04:41;7.53;;;3.53;;
22186;SDS011;11259;52.146;12.844;2023-04-08T03:07:06;5.65;;;3.75;;
22186;SDS011;11259;52.146;12.844;2023-04-08T03:09:33;7.78;;;3.90;;
22186;SDS011;11259;52.146;12.844;2023-04-08T03:11:58;7.50;;;3.75;;
22186;SDS011;11259;52.146;12.844;2023-04-08T03:14:24;6.85;;;4.53;;
22186;SDS011;11259;52.146;12.844;2023-04-08T03:16:49;8.98;;;4.32;;
22186;SDS011;11259;52.146;12.844;2023-04-08T03:19:14;5.43;;;3.15;;
22186;SDS011;11259;52.146;12.844;2023-04-08T03:21:40;9.65;;;4.15;;
22186;SDS011;11259;52.146;12.844;2023-04-08T03:24:05;10.57;;;4.22;;
22186;SDS011;11259;52.146;12.844;2023-04-08T03:26:32;15.32;;;4.20;;
22186;SDS011;11259;52.146;12.844;2023-04-08T03:28:57;6.47;;;3.67;;
22186;SDS011;11259;52.146;12.844;2023-04-08T03:31:22;6.07;;;4.38;;
22186;SDS011;11259;52.146;12.844;2023-04-08T03:33:48;5.85;;;4.20;;
22186;SDS011;11259;52.146;12.844;2023-04-08T03:36:13;8.15;;;3.97;;
22186;SDS011;11259;52.146;12.844;2023-04-08T03:38:38;6.43;;;4.43;;
22186;SDS011;11259;52.146;12.844;2023-04-08T03:41:04;11.15;;;5.07;;
22186;SDS011;11259;52.146;12.844;2023-04-08T03:43:30;7.43;;;5.32;;
22186;SDS011;11259;52.146;12.844;2023-04-08T03:45:56;9.23;;;3.95;;
22186;SDS011;11259;52.146;12.844;2023-04-08T03:48:21;5.22;;;3.47;;
22186;SDS011;11259;52.146;12.844;2023-04-08T03:50:46;6.80;;;3.85;;
22186;SDS011;11259;52.146;12.844;2023-04-08T03:53:12;8.60;;;3.83;;
22186;SDS011;11259;52.146;12.844;2023-04-08T03:55:37;10.13;;;6.00;;
22186;SDS011;11259;52.146;12.844;2023-04-08T03:58:03;11.98;;;4.93;;
22186;SDS011;11259;52.146;12.844;2023-04-08T04:00:29;7.30;;;4.10;;
22186;SDS011;11259;52.146;12.844;2023-04-08T04:02:55;6.70;;;4.05;;
22186;SDS011;11259;52.146;12.844;2023-04-08T04:05:20;9.98;;;4.85;;
22186;SDS011;11259;52.146;12.844;2023-04-08T04:07:46;9.55;;;4.90;;
22186;SDS011;11259;52.146;12.844;2023-04-08T04:10:11;10.57;;;6.05;;
22186;SDS011;11259;52.146;12.844;2023-04-08T04:12:36;6.68;;;4.88;;
22186;SDS011;11259;52.146;12.844;2023-04-08T04:15:02;9.43;;;5.13;;
22186;SDS011;11259;52.146;12.844;2023-04-08T04:17:29;6.57;;;4.07;;
22186;SDS011;11259;52.146;12.844;2023-04-08T04:19:54;10.75;;;4.43;;
22186;SDS011;11259;52.146;12.844;2023-04-08T04:22:20;8.13;;;4.72;;
22186;SDS011;11259;52.146;12.844;2023-04-08T04:24:46;8.93;;;4.93;;
22186;SDS011;11259;52.146;12.844;2023-04-08T04:27:11;7.70;;;5.13;;
22186;SDS011;11259;52.146;12.844;2023-04-08T04:29:37;6.65;;;4.45;;
22186;SDS011;11259;52.146;12.844;2023-04-08T04:32:02;6.45;;;3.70;;
22186;SDS011;11259;52.146;12.844;2023-04-08T04:34:29;9.20;;;4.40;;
22186;SDS011;11259;52.146;12.844;2023-04-08T04:36:54;3.70;;;3.30;;
22186;SDS011;11259;52.146;12.844;2023-04-08T04:39:19;12.88;;;5.68;;
22186;SDS011;11259;52.146;12.844;2023-04-08T04:41:45;6.40;;;3.72;;
22186;SDS011;11259;52.146;12.844;2023-04-08T04:44:10;7.43;;;4.05;;
22186;SDS011;11259;52.146;12.844;2023-04-08T04:46:35;11.63;;;5.60;;
22186;SDS011;11259;52.146;12.844;2023-04-08T04:49:01;8.68;;;4.68;;
22186;SDS011;11259;52.146;12.844;2023-04-08T04:51:27;13.15;;;6.18;;
22186;SDS011;11259;52.146;12.844;2023-04-08T04:53:55;10.63;;;5.60;;
22186;SDS011;11259;52.146;12.844;2023-04-08T04:56:20;8.50;;;4.82;;
22186;SDS011;11259;52.146;12.844;2023-04-08T04:58:45;10.18;;;4.00;;
22186;SDS011;11259;52.146;12.844;2023-04-08T05:01:11;8.68;;;5.00;;
22186;SDS011;11259;52.146;12.844;2023-04-08T05:03:36;10.13;;;5.50;;
22186;SDS011;11259;52.146;12.844;2023-04-08T05:06:01;8.50;;;3.78;;
22186;SDS011;11259;52.146;12.844;2023-04-08T05:08:28;8.27;;;4.55;;
22186;SDS011;11259;52.146;12.844;2023-04-08T05:10:54;8.63;;;4.28;;
22186;SDS011;11259;52.146;12.844;2023-04-08T05:13:19;7.10;;;3.17;;
22186;SDS011;11259;52.146;12.844;2023-04-08T05:15:44;8.02;;;4.57;;
22186;SDS011;11259;52.146;12.844;2023-04-08T05:18:10;5.38;;;3.85;;
22186;SDS011;11259;52.146;12.844;2023-04-08T05:20:36;8.75;;;4.72;;
22186;SDS011;11259;52.146;12.844;2023-04-08T05:23:01;8.68;;;4.32;;
22186;SDS011;11259;52.146;12.844;2023-04-08T05:25:28;10.95;;;5.38;;
22186;SDS011;11259;52.146;12.844;2023-04-08T05:27:53;7.38;;;4.43;;
22186;SDS011;11259;52.146;12.844;2023-04-08T05:30:19;6.75;;;4.53;;
22186;SDS011;11259;52.146;12.844;2023-04-08T05:32:44;7.70;;;4.35;;
22186;SDS011;11259;52.146;12.844;2023-04-08T05:35:09;8.52;;;5.07;;
22186;SDS011;11259;52.146;12.844;2023-04-08T05:37:35;6.78;;;4.82;;
22186;SDS011;11259;52.146;12.844;2023-04-08T05:40:00;12.38;;;5.75;;
22186;SDS011;11259;52.146;12.844;2023-04-08T05:42:27;8.80;;;5.43;;
22186;SDS011;11259;52.146;12.844;2023-04-08T05:44:52;10.25;;;5.47;;
22186;SDS011;11259;52.146;12.844;2023-04-08T05:47:17;11.00;;;5.10;;
22186;SDS011;11259;52.146;12.844;2023-04-08T05:49:43;10.90;;;4.70;;
22186;SDS011;11259;52.146;12.844;2023-04-08T05:52:08;8.90;;;4.57;;
22186;SDS011;11259;52.146;12.844;2023-04-08T05:54:33;9.60;;;5.00;;
22186;SDS011;11259;52.146;12.844;2023-04-08T05:56:59;10.00;;;5.47;;
22186;SDS011;11259;52.146;12.844;2023-04-08T05:59:25;7.65;;;4.40;;
22186;SDS011;11259;52.146;12.844;2023-04-08T06:01:51;9.20;;;4.50;;
22186;SDS011;11259;52.146;12.844;2023-04-08T06:04:16;9.43;;;6.35;;
22186;SDS011;11259;52.146;12.844;2023-04-08T06:06:41;12.63;;;7.03;;
22186;SDS011;11259;52.146;12.844;2023-04-08T06:09:07;12.48;;;7.15;;
22186;SDS011;11259;52.146;12.844;2023-04-08T06:11:32;15.25;;;5.75;;
22186;SDS011;11259;52.146;12.844;2023-04-08T06:13:57;8.80;;;4.88;;
22186;SDS011;11259;52.146;12.844;2023-04-08T06:16:24;15.00;;;6.13;;
22186;SDS011;11259;52.146;12.844;2023-04-08T06:18:49;13.10;;;5.88;;
22186;SDS011;11259;52.146;12.844;2023-04-08T06:21:15;8.40;;;5.53;;
22186;SDS011;11259;52.146;12.844;2023-04-08T06:23:40;11.10;;;5.75;;
22186;SDS011;11259;52.146;12.844;2023-04-08T06:26:05;10.20;;;5.47;;
22186;SDS011;11259;52.146;12.844;2023-04-08T06:28:31;12.18;;;5.75;;
22186;SDS011;11259;52.146;12.844;2023-04-08T06:30:56;10.00;;;5.28;;
22186;SDS011;11259;52.146;12.844;2023-04-08T06:33:23;10.35;;;6.25;;
22186;SDS011;11259;52.146;12.844;2023-04-08T06:35:48;15.60;;;6.15;;
22186;SDS011;11259;52.146;12.844;2023-04-08T06:38:14;13.32;;;5.97;;
22186;SDS011;11259;52.146;12.844;2023-04-08T06:40:39;11.70;;;6.72;;
22186;SDS011;11259;52.146;12.844;2023-04-08T06:43:04;13.95;;;7.57;;
22186;SDS011;11259;52.146;12.844;2023-04-08T06:45:30;9.50;;;5.72;;
22186;SDS011;11259;52.146;12.844;2023-04-08T06:47:55;13.27;;;6.25;;
22186;SDS011;11259;52.146;12.844;2023-04-08T06:50:22;8.57;;;5.03;;
22186;SDS011;11259;52.146;12.844;2023-04-08T06:52:47;11.48;;;6.18;;
22186;SDS011;11259;52.146;12.844;2023-04-08T06:55:12;12.10;;;6.75;;
22186;SDS011;11259;52.146;12.844;2023-04-08T06:57:38;10.45;;;5.50;;
22186;SDS011;11259;52.146;12.844;2023-04-08T07:00:03;11.57;;;6.25;;
22186;SDS011;11259;52.146;12.844;2023-04-08T07:02:30;14.50;;;7.35;;
22186;SDS011;11259;52.146;12.844;2023-04-08T07:04:55;11.18;;;5.40;;
22186;SDS011;11259;52.146;12.844;2023-04-08T07:07:22;11.30;;;5.55;;
22186;SDS011;11259;52.146;12.844;2023-04-08T07:09:47;11.82;;;6.25;;
22186;SDS011;11259;52.146;12.844;2023-04-08T07:12:13;10.90;;;5.72;;
22186;SDS011;11259;52.146;12.844;2023-04-08T07:14:38;9.57;;;6.00;;
22186;SDS011;11259;52.146;12.844;2023-04-08T07:17:03;11.55;;;5.95;;
22186;SDS011;11259;52.146;12.844;2023-04-08T07:19:29;10.10;;;5.20;;
22186;SDS011;11259;52.146;12.844;2023-04-08T07:21:54;12.63;;;6.20;;
22186;SDS011;11259;52.146;12.844;2023-04-08T07:24:21;13.82;;;6.38;;
22186;SDS011;11259;52.146;12.844;2023-04-08T07:26:46;9.93;;;5.97;;
22186;SDS011;11259;52.146;12.844;2023-04-08T07:29:11;13.30;;;6.60;;
22186;SDS011;11259;52.146;12.844;2023-04-08T07:31:37;16.30;;;7.40;;
22186;SDS011;11259;52.146;12.844;2023-04-08T07:34:02;12.32;;;6.93;;
22186;SDS011;11259;52.146;12.844;2023-04-08T07:36:27;13.40;;;6.40;;
22186;SDS011;11259;52.146;12.844;2023-04-08T07:38:53;10.10;;;6.00;;
22186;SDS011;11259;52.146;12.844;2023-04-08T07:41:19;9.48;;;5.65;;
22186;SDS011;11259;52.146;12.844;2023-04-08T07:43:45;10.43;;;5.78;;
22186;SDS011;11259;52.146;12.844;2023-04-08T07:46:10;10.68;;;6.85;;
22186;SDS011;11259;52.146;12.844;2023-04-08T07:48:36;21.92;;;8.13;;
22186;SDS011;11259;52.146;12.844;2023-04-08T07:51:02;11.38;;;6.43;;
22186;SDS011;11259;52.146;12.844;2023-04-08T07:53:27;12.90;;;7.05;;
22186;SDS011;11259;52.146;12.844;2023-04-08T07:55:53;19.17;;;7.20;;
22186;SDS011;11259;52.146;12.844;2023-04-08T07:58:19;11.55;;;6.45;;
22186;SDS011;11259;52.146;12.844;2023-04-08T08:00:45;16.48;;;6.78;;
22186;SDS011;11259;52.146;12.844;2023-04-08T08:03:10;12.70;;;7.40;;
22186;SDS011;11259;52.146;12.844;2023-04-08T08:05:35;16.67;;;7.38;;
22186;SDS011;11259;52.146;12.844;2023-04-08T08:08:01;16.83;;;7.35;;
22186;SDS011;11259;52.146;12.844;2023-04-08T08:10:26;10.20;;;5.70;;
22186;SDS011;11259;52.146;12.844;2023-04-08T08:12:51;12.18;;;5.50;;
22186;SDS011;11259;52.146;12.844;2023-04-08T08:15:18;20.67;;;8.07;;
22186;SDS011;11259;52.146;12.844;2023-04-08T08:17:43;11.07;;;6.13;;
22186;SDS011;11259;52.146;12.844;2023-04-08T08:20:09;12.38;;;5.97;;
22186;SDS011;11259;52.146;12.844;2023-04-08T08:22:35;10.45;;;5.60;;
22186;SDS011;11259;52.146;12.844;2023-04-08T08:25:00;12.88;;;6.40;;
22186;SDS011;11259;52.146;12.844;2023-04-08T08:27:26;10.50;;;6.20;;
22186;SDS011;11259;52.146;12.844;2023-04-08T08:29:51;11.43;;;6.80;;
22186;SDS011;11259;52.146;12.844;2023-04-08T08:32:18;14.00;;;6.35;;
22186;SDS011;11259;52.146;12.844;2023-04-08T08:34:43;12.90;;;6.65;;
22186;SDS011;11259;52.146;12.844;2023-04-08T08:37:08;14.23;;;6.18;;
22186;SDS011;11259;52.146;12.844;2023-04-08T08:39:34;18.77;;;6.68;;
22186;SDS011;11259;52.146;12.844;2023-04-08T08:41:59;10.85;;;5.90;;
22186;SDS011;11259;52.146;12.844;2023-04-08T08:44:24;14.75;;;5.53;;
22186;SDS011;11259;52.146;12.844;2023-04-08T08:46:50;12.93;;;6.20;;
22186;SDS011;11259;52.146;12.844;2023-04-08T08:49:16;11.35;;;5.90;;
22186;SDS011;11259;52.146;12.844;2023-04-08T08:51:42;13.52;;;6.30;;
22186;SDS011;11259;52.146;12.844;2023-04-08T08:54:09;9.23;;;5.85;;
22186;SDS011;11259;52.146;12.844;2023-04-08T08:56:34;11.30;;;6.35;;
22186;SDS011;11259;52.146;12.844;2023-04-08T08:59:00;10.35;;;6.80;;
22186;SDS011;11259;52.146;12.844;2023-04-08T09:01:29;11.88;;;5.57;;
22186;SDS011;11259;52.146;12.844;2023-04-08T09:04:05;13.30;;;6.50;;
22186;SDS011;11259;52.146;12.844;2023-04-08T09:06:32;10.43;;;5.93;;
22186;SDS011;11259;52.146;12.844;2023-04-08T09:08:58;10.50;;;5.78;;
22186;SDS011;11259;52.146;12.844;2023-04-08T09:11:23;11.73;;;5.68;;
22186;SDS011;11259;52.146;12.844;2023-04-08T09:13:48;13.20;;;6.13;;
22186;SDS011;11259;52.146;12.844;2023-04-08T09:16:14;11.60;;;5.53;;
22186;SDS011;11259;52.146;12.844;2023-04-08T09:18:40;9.07;;;5.20;;
22186;SDS011;11259;52.146;12.844;2023-04-08T09:21:06;14.75;;;6.85;;
22186;SDS011;11259;52.146;12.844;2023-04-08T09:23:39;7.00;;;4.25;;
22186;SDS011;11259;52.146;12.844;2023-04-08T09:26:06;10.15;;;6.15;;
22186;SDS011;11259;52.146;12.844;2023-04-08T09:28:32;10.77;;;5.55;;
22186;SDS011;11259;52.146;12.844;2023-04-08T09:30:57;7.70;;;5.18;;
22186;SDS011;11259;52.146;12.844;2023-04-08T09:33:28;11.43;;;6.05;;
22186;SDS011;11259;52.146;12.844;2023-04-08T09:35:54;10.98;;;5.70;;
22186;SDS011;11259;52.146;12.844;2023-04-08T09:38:19;9.90;;;5.45;;
22186;SDS011;11259;52.146;12.844;2023-04-08T09:40:46;12.02;;;5.78;;
22186;SDS011;11259;52.146;12.844;2023-04-08T09:43:11;12.00;;;5.35;;
22186;SDS011;11259;52.146;12.844;2023-04-08T09:45:37;11.93;;;5.85;;
22186;SDS011;11259;52.146;12.844;2023-04-08T09:48:05;15.88;;;7.53;;
22186;SDS011;11259;52.146;12.844;2023-04-08T09:50:35;9.20;;;5.78;;
22186;SDS011;11259;52.146;12.844;2023-04-08T09:53:07;9.48;;;5.50;;
22186;SDS011;11259;52.146;12.844;2023-04-08T09:55:34;11.35;;;5.93;;
22186;SDS011;11259;52.146;12.844;2023-04-08T09:58:02;10.50;;;5.80;;
22186;SDS011;11259;52.146;12.844;2023-04-08T10:00:31;9.30;;;5.35;;
22186;SDS011;11259;52.146;12.844;2023-04-08T10:02:59;11.30;;;5.22;;
22186;SDS011;11259;52.146;12.844;2023-04-08T10:05:31;12.60;;;6.65;;
22186;SDS011;11259;52.146;12.844;2023-04-08T10:07:57;9.77;;;5.53;;
22186;SDS011;11259;52.146;12.844;2023-04-08T10:10:23;11.88;;;5.65;;
22186;SDS011;11259;52.146;12.844;2023-04-08T10:12:48;11.10;;;5.90;;
22186;SDS011;11259;52.146;12.844;2023-04-08T10:15:22;6.95;;;4.90;;
22186;SDS011;11259;52.146;12.844;2023-04-08T10:17:49;11.75;;;5.72;;
22186;SDS011;11259;52.146;12.844;2023-04-08T10:20:39;9.23;;;4.72;;
22186;SDS011;11259;52.146;12.844;2023-04-08T10:23:05;6.60;;;4.55;;
22186;SDS011;11259;52.146;12.844;2023-04-08T10:25:32;11.57;;;5.03;;
22186;SDS011;11259;52.146;12.844;2023-04-08T10:27:58;7.50;;;4.45;;
22186;SDS011;11259;52.146;12.844;2023-04-08T10:30:43;7.00;;;4.60;;
22186;SDS011;11259;52.146;12.844;2023-04-08T10:33:09;7.70;;;4.65;;
22186;SDS011;11259;52.146;12.844;2023-04-08T10:35:36;5.65;;;3.85;;
22186;SDS011;11259;52.146;12.844;2023-04-08T10:38:02;7.18;;;3.88;;
22186;SDS011;11259;52.146;12.844;2023-04-08T10:40:28;7.47;;;3.97;;
22186;SDS011;11259;52.146;12.844;2023-04-08T10:42:53;6.65;;;3.45;;
22186;SDS011;11259;52.146;12.844;2023-04-08T10:45:18;6.57;;;3.80;;
22186;SDS011;11259;52.146;12.844;2023-04-08T10:47:45;7.93;;;4.22;;
22186;SDS011;11259;52.146;12.844;2023-04-08T10:50:11;6.10;;;4.25;;
22186;SDS011;11259;52.146;12.844;2023-04-08T10:52:44;10.23;;;4.40;;
22186;SDS011;11259;52.146;12.844;2023-04-08T10:55:10;7.93;;;4.25;;
22186;SDS011;11259;52.146;12.844;2023-04-08T10:57:35;4.97;;;3.28;;
22186;SDS011;11259;52.146;12.844;2023-04-08T11:00:01;10.00;;;4.18;;
22186;SDS011;11259;52.146;12.844;2023-04-08T11:02:31;4.05;;;3.55;;
22186;SDS011;11259;52.146;12.844;2023-04-08T11:04:58;4.45;;;3.28;;
22186;SDS011;11259;52.146;12.844;2023-04-08T11:07:24;7.47;;;3.97;;
22186;SDS011;11259;52.146;12.844;2023-04-08T11:09:49;6.78;;;3.63;;
22186;SDS011;11259;52.146;12.844;2023-04-08T11:12:15;7.10;;;4.00;;
22186;SDS011;11259;52.146;12.844;2023-04-08T11:14:40;6.30;;;3.78;;
22186;SDS011;11259;52.146;12.844;2023-04-08T11:17:06;5.30;;;3.03;;
22186;SDS011;11259;52.146;12.844;2023-04-08T11:19:34;5.80;;;3.53;;
22186;SDS011;11259;52.146;12.844;2023-04-08T11:22:01;5.57;;;3.65;;
22186;SDS011;11259;52.146;12.844;2023-04-08T11:24:26;6.68;;;3.97;;
22186;SDS011;11259;52.146;12.844;2023-04-08T11:26:52;6.22;;;3.10;;
22186;SDS011;11259;52.146;12.844;2023-04-08T11:29:18;7.75;;;3.55;;
22186;SDS011;11259;52.146;12.844;2023-04-08T11:31:43;5.18;;;3.28;;
22186;SDS011;11259;52.146;12.844;2023-04-08T11:34:09;5.88;;;3.33;;
22186;SDS011;11259;52.146;12.844;2023-04-08T11:36:34;5.55;;;2.95;;
22186;SDS011;11259;52.146;12.844;2023-04-08T11:39:01;4.53;;;3.58;;
22186;SDS011;11259;52.146;12.844;2023-04-08T11:41:34;6.88;;;3.92;;
22186;SDS011;11259;52.146;12.844;2023-04-08T11:44:00;5.65;;;3.78;;
22186;SDS011;11259;52.146;12.844;2023-04-08T11:46:25;7.57;;;3.30;;
22186;SDS011;11259;52.146;12.844;2023-04-08T11:48:57;5.20;;;3.60;;
22186;SDS011;11259;52.146;12.844;2023-04-08T11:51:26;6.40;;;3.60;;
22186;SDS011;11259;52.146;12.844;2023-04-08T11:53:51;6.32;;;3.85;;
22186;SDS011;11259;52.146;12.844;2023-04-08T11:56:18;7.88;;;3.55;;
22186;SDS011;11259;52.146;12.844;2023-04-08T11:58:45;5.25;;;3.40;;
22186;SDS011;11259;52.146;12.844;2023-04-08T12:01:10;7.68;;;4.25;;
22186;SDS011;11259;52.146;12.844;2023-04-08T12:03:35;5.93;;;3.30;;
22186;SDS011;11259;52.146;12.844;2023-04-08T12:06:01;6.85;;;3.45;;
22186;SDS011;11259;52.146;12.844;2023-04-08T12:08:26;8.00;;;3.97;;
22186;SDS011;11259;52.146;12.844;2023-04-08T12:10:51;6.97;;;4.03;;
22186;SDS011;11259;52.146;12.844;2023-04-08T12:13:18;5.45;;;3.22;;
22186;SDS011;11259;52.146;12.844;2023-04-08T12:15:43;5.57;;;3.63;;
22186;SDS011;11259;52.146;12.844;2023-04-08T12:18:09;6.32;;;3.25;;
22186;SDS011;11259;52.146;12.844;2023-04-08T12:20:34;7.28;;;4.63;;
22186;SDS011;11259;52.146;12.844;2023-04-08T12:22:59;4.60;;;3.05;;
22186;SDS011;11259;52.146;12.844;2023-04-08T12:25:25;7.35;;;3.38;;
22186;SDS011;11259;52.146;12.844;2023-04-08T12:27:50;6.50;;;3.30;;
22186;SDS011;11259;52.146;12.844;2023-04-08T12:30:17;7.13;;;3.70;;
22186;SDS011;11259;52.146;12.844;2023-04-08T12:32:42;7.93;;;3.60;;
22186;SDS011;11259;52.146;12.844;2023-04-08T12:35:08;5.25;;;2.95;;
22186;SDS011;11259;52.146;12.844;2023-04-08T12:37:33;4.80;;;3.30;;
22186;SDS011;11259;52.146;12.844;2023-04-08T12:39:58;5.68;;;3.35;;
22186;SDS011;11259;52.146;12.844;2023-04-08T12:42:24;5.53;;;3.08;;
22186;SDS011;11259;52.146;12.844;2023-04-08T12:44:49;6.65;;;3.58;;
22186;SDS011;11259;52.146;12.844;2023-04-08T12:47:15;5.57;;;3.08;;
22186;SDS011;11259;52.146;12.844;2023-04-08T12:49:41;4.20;;;2.67;;
22186;SDS011;11259;52.146;12.844;2023-04-08T12:52:06;5.35;;;3.00;;
22186;SDS011;11259;52.146;12.844;2023-04-08T12:54:31;6.18;;;2.30;;
22186;SDS011;11259;52.146;12.844;2023-04-08T12:56:57;5.35;;;2.78;;
22186;SDS011;11259;52.146;12.844;2023-04-08T12:59:22;4.13;;;2.95;;
22186;SDS011;11259;52.146;12.844;2023-04-08T13:01:47;4.00;;;2.70;;
22186;SDS011;11259;52.146;12.844;2023-04-08T13:04:14;2.88;;;2.35;;
22186;SDS011;11259;52.146;12.844;2023-04-08T13:06:39;5.30;;;3.33;;
22186;SDS011;11259;52.146;12.844;2023-04-08T13:09:05;4.00;;;2.42;;
22186;SDS011;11259;52.146;12.844;2023-04-08T13:11:30;6.60;;;2.80;;
22186;SDS011;11259;52.146;12.844;2023-04-08T13:13:55;6.00;;;4.07;;
22186;SDS011;11259;52.146;12.844;2023-04-08T13:16:21;6.03;;;3.28;;
22186;SDS011;11259;52.146;12.844;2023-04-08T13:18:46;4.60;;;2.70;;
22186;SDS011;11259;52.146;12.844;2023-04-08T13:21:13;4.53;;;2.45;;
22186;SDS011;11259;52.146;12.844;2023-04-08T13:23:39;4.30;;;2.83;;
22186;SDS011;11259;52.146;12.844;2023-04-08T13:26:04;3.67;;;3.03;;
22186;SDS011;11259;52.146;12.844;2023-04-08T13:28:30;5.90;;;3.58;;
22186;SDS011;11259;52.146;12.844;2023-04-08T13:30:55;4.90;;;2.70;;
22186;SDS011;11259;52.146;12.844;2023-04-08T13:33:20;3.88;;;2.85;;
22186;SDS011;11259;52.146;12.844;2023-04-08T13:35:46;3.30;;;2.60;;
22186;SDS011;11259;52.146;12.844;2023-04-08T13:38:13;4.95;;;2.60;;
22186;SDS011;11259;52.146;12.844;2023-04-08T13:40:38;3.67;;;2.80;;
22186;SDS011;11259;52.146;12.844;2023-04-08T13:43:03;3.90;;;2.78;;
22186;SDS011;11259;52.146;12.844;2023-04-08T13:45:29;3.67;;;2.92;;
22186;SDS011;11259;52.146;12.844;2023-04-08T13:47:54;5.45;;;3.17;;
22186;SDS011;11259;52.146;12.844;2023-04-08T13:50:19;3.70;;;2.60;;
22186;SDS011;11259;52.146;12.844;2023-04-08T13:52:45;4.85;;;3.05;;
22186;SDS011;11259;52.146;12.844;2023-04-08T13:55:11;5.63;;;3.28;;
22186;SDS011;11259;52.146;12.844;2023-04-08T13:57:37;3.85;;;3.22;;
22186;SDS011;11259;52.146;12.844;2023-04-08T14:00:02;3.78;;;2.85;;
22186;SDS011;11259;52.146;12.844;2023-04-08T14:02:28;3.78;;;2.63;;
22186;SDS011;11259;52.146;12.844;2023-04-08T14:04:53;3.70;;;2.70;;
22186;SDS011;11259;52.146;12.844;2023-04-08T14:07:19;3.88;;;2.58;;
22186;SDS011;11259;52.146;12.844;2023-04-08T14:09:44;3.45;;;2.65;;
22186;SDS011;11259;52.146;12.844;2023-04-08T14:12:11;3.63;;;2.70;;
22186;SDS011;11259;52.146;12.844;2023-04-08T14:14:36;3.60;;;2.35;;
22186;SDS011;11259;52.146;12.844;2023-04-08T14:17:01;4.68;;;3.25;;
22186;SDS011;11259;52.146;12.844;2023-04-08T14:19:27;3.35;;;2.80;;
22186;SDS011;11259;52.146;12.844;2023-04-08T14:21:52;3.60;;;2.95;;
22186;SDS011;11259;52.146;12.844;2023-04-08T14:24:17;6.53;;;3.20;;